Time;durP1;ratioP1;P1;durP2;ratioP2;P2;SDS_P1;SDS_P2;PMS_P1;PMS_P2;Temp;Humidity;BMP_temperature;BMP_pressure;BME280_temperature;BME280_humidity;BME280_pressure;Samples;Min_cycle;Max_cycle;Signal;HPM_P1;HPM_P2
2021/11/10 00:02:16;;;;;;;2.75;2.47;;;21.60;58.70;;;;;;5005658;28;20270;-40
2021/11/10 00:04:49;;;;;;;2.50;2.30;;;21.60;58.70;;;;;;5007123;28;20229;-41
2021/11/10 00:07:19;;;;;;;2.95;2.30;;;21.70;58.90;;;;;;5007113;28;20252;-40
2021/11/10 00:09:50;;;;;;;2.60;2.40;;;21.70;58.90;;;;;;5007207;28;20224;-44
2021/11/10 00:12:21;;;;;;;2.88;2.55;;;21.70;58.90;;;;;;5006707;28;20193;-40
2021/11/10 00:14:51;;;;;;;2.40;2.22;;;21.80;58.90;;;;;;5007173;28;20204;-45
2021/11/10 00:17:22;;;;;;;2.65;2.40;;;21.80;58.80;;;;;;5006347;28;20192;-42
2021/11/10 00:19:54;;;;;;;2.55;2.35;;;21.90;58.80;;;;;;5006917;28;20302;-42
2021/11/10 00:22:26;;;;;;;2.60;2.40;;;21.90;58.80;;;;;;5005902;28;20221;-40
2021/11/10 00:24:56;;;;;;;2.75;2.35;;;22.00;58.80;;;;;;5006524;28;20197;-41
2021/11/10 00:27:27;;;;;;;2.70;2.50;;;22.00;58.80;;;;;;5007705;28;20201;-40
2021/11/10 00:30:01;;;;;;;2.92;2.72;;;22.10;58.90;;;;;;5007174;28;20258;-41
2021/11/10 00:32:32;;;;;;;2.88;2.67;;;22.10;58.80;;;;;;5003279;28;20198;-40
2021/11/10 00:35:05;;;;;;;3.30;3.00;;;22.20;58.70;;;;;;5001442;28;20208;-41
2021/11/10 00:37:35;;;;;;;3.25;2.95;;;22.20;58.60;;;;;;5007287;28;20204;-42
2021/11/10 00:40:07;;;;;;;3.85;2.92;;;22.20;58.50;;;;;;5007042;28;20560;-43
2021/11/10 00:42:38;;;;;;;3.35;3.05;;;22.30;58.40;;;;;;5005977;28;20264;-40
2021/11/10 00:45:09;;;;;;;4.40;3.05;;;22.30;58.50;;;;;;5006795;28;20200;-40
2021/11/10 00:47:40;;;;;;;3.78;3.17;;;22.30;58.60;;;;;;5006313;28;20259;-40
2021/11/10 00:50:13;;;;;;;5.95;3.42;;;22.40;58.60;;;;;;5007080;28;20204;-44
2021/11/10 00:52:44;;;;;;;3.97;3.33;;;22.40;58.40;;;;;;5005570;28;20201;-41
2021/11/10 00:55:15;;;;;;;7.05;3.92;;;22.50;58.40;;;;;;5005822;28;20570;-41
2021/11/10 00:57:45;;;;;;;5.30;3.50;;;22.50;58.40;;;;;;5006376;28;20707;-41
2021/11/10 01:00:16;;;;;;;6.78;3.95;;;22.60;58.50;;;;;;5006907;28;20196;-41
2021/11/10 01:02:47;;;;;;;6.93;3.80;;;22.60;58.40;;;;;;5005800;28;20232;-43
2021/11/10 01:05:20;;;;;;;9.15;4.30;;;22.60;58.40;;;;;;5005097;28;20213;-41
2021/11/10 01:07:51;;;;;;;7.43;3.97;;;22.70;58.40;;;;;;5005941;28;20606;-41
2021/11/10 01:10:21;;;;;;;9.82;4.68;;;22.70;58.20;;;;;;5004837;28;20673;-41
2021/11/10 01:12:52;;;;;;;10.32;4.75;;;22.70;58.20;;;;;;5005964;28;20351;-40
2021/11/10 01:15:23;;;;;;;11.95;5.68;;;22.80;58.20;;;;;;5006337;28;20740;-45
2021/11/10 01:17:54;;;;;;;12.93;5.82;;;22.90;58.70;;;;;;5007173;28;20692;-41
2021/11/10 01:20:27;;;;;;;13.00;5.97;;;22.90;58.00;;;;;;5006280;28;20734;-44
2021/11/10 01:22:58;;;;;;;12.68;5.90;;;22.90;57.80;;;;;;5005640;28;20212;-41
2021/11/10 01:25:28;;;;;;;13.65;5.75;;;23.00;57.80;;;;;;5005518;28;20243;-42
2021/11/10 01:27:59;;;;;;;8.75;5.65;;;23.00;57.60;;;;;;5006436;28;20267;-43
2021/11/10 01:30:30;;;;;;;11.77;6.50;;;23.00;57.50;;;;;;5009246;28;20661;-44
2021/11/10 01:33:01;;;;;;;10.52;5.70;;;23.10;57.60;;;;;;5008917;28;20208;-45
2021/11/10 01:35:33;;;;;;;11.07;5.88;;;23.10;57.60;;;;;;5010559;28;20226;-43
2021/11/10 01:38:04;;;;;;;13.30;6.78;;;23.10;57.60;;;;;;5009236;28;20209;-39
2021/11/10 01:40:35;;;;;;;11.82;7.38;;;23.20;57.60;;;;;;5010363;28;20220;-46
2021/11/10 01:43:12;;;;;;;15.27;7.32;;;23.20;57.70;;;;;;5009082;28;20299;-40
2021/11/10 01:45:46;;;;;;;13.23;6.47;;;23.20;57.80;;;;;;5009770;28;20201;-41
2021/11/10 01:48:17;;;;;;;14.27;6.82;;;23.30;57.80;;;;;;5008852;28;20197;-42
2021/11/10 01:50:49;;;;;;;12.05;6.30;;;23.30;57.80;;;;;;5008936;28;20437;-46
2021/11/10 01:53:20;;;;;;;11.68;6.55;;;23.30;57.70;;;;;;5009313;28;20224;-42
2021/11/10 01:55:53;;;;;;;13.48;7.13;;;23.40;57.60;;;;;;5008831;28;20267;-41
2021/11/10 01:58:24;;;;;;;10.18;6.47;;;23.40;57.50;;;;;;5009769;28;20573;-41
2021/11/10 02:00:55;;;;;;;11.55;6.82;;;23.40;57.40;;;;;;5009061;28;20207;-40
2021/11/10 02:03:25;;;;;;;10.35;6.25;;;23.40;57.40;;;;;;5007988;28;20216;-43
2021/11/10 02:06:01;;;;;;;11.60;6.85;;;23.40;57.20;;;;;;5009286;28;20748;-43
2021/11/10 02:08:31;;;;;;;9.25;5.93;;;23.50;57.10;;;;;;5010019;28;20239;-46
2021/11/10 02:11:02;;;;;;;10.35;6.53;;;23.50;57.00;;;;;;5009524;28;20673;-40
2021/11/10 02:13:33;;;;;;;10.30;5.90;;;23.50;56.80;;;;;;5009188;28;20704;-41
2021/11/10 02:16:03;;;;;;;9.60;5.95;;;23.50;56.70;;;;;;5009599;28;20200;-40
2021/11/10 02:18:34;;;;;;;10.30;6.30;;;23.50;56.60;;;;;;5008692;28;20208;-42
2021/11/10 02:21:12;;;;;;;11.02;6.30;;;23.50;56.60;;;;;;5009326;28;20228;-44
2021/11/10 02:23:43;;;;;;;11.60;6.85;;;23.60;56.60;;;;;;5009111;28;20247;-47
2021/11/10 02:26:16;;;;;;;7.65;5.90;;;23.60;56.60;;;;;;5008946;28;20197;-43
2021/11/10 02:28:46;;;;;;;9.82;6.25;;;23.60;56.50;;;;;;5008990;28;20227;-44
2021/11/10 02:31:17;;;;;;;6.88;6.00;;;23.70;56.50;;;;;;5008967;28;20196;-43
2021/11/10 02:33:48;;;;;;;7.22;5.97;;;23.70;56.40;;;;;;5007437;28;20225;-43
2021/11/10 02:36:20;;;;;;;9.68;6.45;;;23.70;56.30;;;;;;5007874;28;20209;-45
2021/11/10 02:38:51;;;;;;;9.18;6.30;;;23.70;56.80;;;;;;5007520;28;20263;-43
2021/11/10 02:41:22;;;;;;;7.53;6.18;;;23.70;56.10;;;;;;5009108;28;20657;-40
2021/11/10 02:43:53;;;;;;;6.65;5.50;;;23.80;56.10;;;;;;5007907;28;20213;-40
2021/11/10 02:46:23;;;;;;;9.55;6.07;;;23.80;56.10;;;;;;5008190;28;20205;-41
2021/11/10 02:48:54;;;;;;;7.03;6.22;;;23.80;56.00;;;;;;5008430;28;20233;-44
2021/11/10 02:51:27;;;;;;;8.07;6.03;;;23.80;55.80;;;;;;5007573;28;20201;-40
2021/11/10 02:53:58;;;;;;;9.60;6.47;;;23.80;55.80;;;;;;5007473;28;20231;-43
2021/11/10 02:56:28;;;;;;;7.63;5.97;;;23.90;55.70;;;;;;5005689;28;20208;-43
2021/11/10 02:58:59;;;;;;;8.57;5.72;;;23.90;55.70;;;;;;5009297;28;20896;-40
2021/11/10 03:01:29;;;;;;;7.45;6.20;;;23.90;55.60;;;;;;5004013;28;20205;-42
2021/11/10 03:04:00;;;;;;;9.48;5.75;;;23.90;55.40;;;;;;5006020;28;20283;-40
2021/11/10 03:06:32;;;;;;;8.40;6.18;;;23.90;55.40;;;;;;5007143;28;20208;-43
2021/11/10 03:09:03;;;;;;;8.63;6.65;;;24.00;55.50;;;;;;5008429;28;20225;-42
2021/11/10 03:11:34;;;;;;;9.95;6.03;;;23.90;55.40;;;;;;5007392;28;20205;-41
2021/11/10 03:14:05;;;;;;;7.25;5.65;;;23.90;55.40;;;;;;5008460;28;20225;-41
2021/11/10 03:16:35;;;;;;;6.75;5.63;;;24.00;55.40;;;;;;5008321;28;20248;-42
2021/11/10 03:19:06;;;;;;;6.90;5.60;;;24.00;55.40;;;;;;5007956;28;20209;-48
2021/11/10 03:21:39;;;;;;;7.68;5.38;;;24.00;55.30;;;;;;5008526;28;20223;-44
2021/11/10 03:24:10;;;;;;;8.23;5.95;;;24.00;55.30;;;;;;5007293;28;20303;-45
2021/11/10 03:26:41;;;;;;;8.23;5.88;;;24.00;55.30;;;;;;5007459;28;20196;-42
2021/11/10 03:29:11;;;;;;;8.60;6.57;;;24.00;55.30;;;;;;5006788;28;20596;-42
2021/11/10 03:31:42;;;;;;;8.00;5.90;;;24.00;55.30;;;;;;4996247;28;20216;-45
2021/11/10 03:34:14;;;;;;;8.00;6.15;;;24.10;55.30;;;;;;5008815;28;20217;-41
2021/11/10 03:36:47;;;;;;;7.55;5.93;;;24.10;55.20;;;;;;5006372;28;20205;-45
2021/11/10 03:39:19;;;;;;;6.72;5.97;;;24.10;55.20;;;;;;5007543;28;20211;-42
2021/11/10 03:41:50;;;;;;;6.00;5.35;;;24.10;55.10;;;;;;5007244;28;20616;-41
2021/11/10 03:44:20;;;;;;;7.38;5.57;;;24.10;55.10;;;;;;5007475;28;20228;-42
2021/11/10 03:46:51;;;;;;;5.70;5.15;;;24.10;55.10;;;;;;5008431;28;20280;-43
2021/11/10 03:49:23;;;;;;;6.60;5.88;;;24.10;55.10;;;;;;5007289;28;20282;-41
2021/11/10 03:51:56;;;;;;;5.78;5.18;;;24.10;55.10;;;;;;5007019;28;20201;-45
2021/11/10 03:54:26;;;;;;;6.05;5.45;;;24.10;55.10;;;;;;5007565;28;20568;-46
2021/11/10 03:56:57;;;;;;;6.25;5.65;;;24.10;55.10;;;;;;5006741;28;20205;-40
2021/11/10 03:59:27;;;;;;;6.18;5.50;;;24.10;55.10;;;;;;5006082;28;20673;-44
2021/11/10 04:01:58;;;;;;;6.38;5.68;;;24.10;55.20;;;;;;5007366;28;20213;-41
2021/11/10 04:04:29;;;;;;;6.38;5.75;;;24.10;55.20;;;;;;5007238;28;20213;-43
2021/11/10 04:07:01;;;;;;;6.47;5.70;;;24.10;55.10;;;;;;5008471;28;20255;-41
2021/11/10 04:09:32;;;;;;;6.78;5.88;;;24.10;55.00;;;;;;5007057;28;20311;-41
2021/11/10 04:12:02;;;;;;;6.68;6.00;;;24.10;55.00;;;;;;5006555;28;20601;-44
2021/11/10 04:14:33;;;;;;;6.50;5.53;;;24.10;54.90;;;;;;5006894;28;20629;-41
2021/11/10 04:17:05;;;;;;;6.65;5.97;;;24.10;54.90;;;;;;5006488;28;20239;-46
2021/11/10 04:19:36;;;;;;;5.97;5.47;;;24.10;54.90;;;;;;5006329;28;20286;-41
2021/11/10 04:22:09;;;;;;;6.97;5.80;;;24.10;54.90;;;;;;5006504;28;20192;-42
2021/11/10 04:24:40;;;;;;;7.13;6.15;;;24.10;54.90;;;;;;5007480;28;20224;-42
2021/11/10 04:27:11;;;;;;;6.88;5.60;;;24.10;54.90;;;;;;5006850;28;20208;-42
2021/11/10 04:29:41;;;;;;;6.32;5.72;;;24.10;55.00;;;;;;5007098;28;20311;-42
2021/11/10 04:32:12;;;;;;;6.65;5.68;;;24.10;54.90;;;;;;5005531;28;20200;-43
2021/11/10 04:34:43;;;;;;;6.15;5.50;;;24.10;54.90;;;;;;5006916;28;20221;-44
2021/11/10 04:37:16;;;;;;;6.55;5.53;;;24.10;54.90;;;;;;5006670;28;20224;-42
2021/11/10 04:39:46;;;;;;;6.40;5.85;;;24.10;54.90;;;;;;5007010;28;20197;-44
2021/11/10 04:42:17;;;;;;;6.75;5.93;;;24.10;54.90;;;;;;5006734;28;20220;-41
2021/11/10 04:44:52;;;;;;;8.13;6.13;;;24.10;54.90;;;;;;5006617;28;20224;-41
2021/11/10 04:47:22;;;;;;;6.70;6.10;;;24.10;54.90;;;;;;5006631;28;20660;-42
2021/11/10 04:49:53;;;;;;;6.30;5.80;;;24.10;54.90;;;;;;5007186;28;20275;-44
2021/11/10 04:52:26;;;;;;;6.30;5.68;;;24.10;54.80;;;;;;5006555;28;20280;-44
2021/11/10 04:54:57;;;;;;;6.30;5.70;;;24.10;54.80;;;;;;5007077;28;20212;-44
2021/11/10 04:57:27;;;;;;;5.97;5.47;;;24.10;54.80;;;;;;5000519;28;20691;-41
2021/11/10 04:59:57;;;;;;;6.50;5.90;;;24.10;54.90;;;;;;5006579;28;20201;-43
2021/11/10 05:02:28;;;;;;;6.15;5.55;;;24.10;54.90;;;;;;5006918;28;20300;-42
2021/11/10 05:04:58;;;;;;;6.85;5.68;;;24.10;54.80;;;;;;5003252;28;20207;-43
2021/11/10 05:07:31;;;;;;;7.20;5.72;;;24.10;54.80;;;;;;5004936;28;20237;-42
2021/11/10 05:10:01;;;;;;;6.38;5.78;;;24.10;54.90;;;;;;5007146;28;20311;-44
2021/11/10 05:12:32;;;;;;;6.35;5.70;;;24.10;54.60;;;;;;5006806;28;20287;-45
2021/11/10 05:15:02;;;;;;;6.10;5.50;;;24.00;54.60;;;;;;5006927;28;20268;-45
2021/11/10 05:17:33;;;;;;;6.28;5.70;;;24.10;54.60;;;;;;5005457;28;20292;-41
2021/11/10 05:20:03;;;;;;;6.15;5.65;;;24.00;54.60;;;;;;5005602;28;20280;-43
2021/11/10 05:22:36;;;;;;;6.45;5.90;;;24.00;54.60;;;;;;5005365;28;20232;-43
2021/11/10 05:25:07;;;;;;;6.25;5.65;;;24.00;54.70;;;;;;5006389;28;20207;-45
2021/11/10 05:27:38;;;;;;;7.30;5.90;;;24.00;54.70;;;;;;5007714;28;20668;-42
2021/11/10 05:30:10;;;;;;;6.05;5.50;;;24.00;54.70;;;;;;5002530;28;20228;-42
2021/11/10 05:32:41;;;;;;;6.25;5.70;;;24.00;54.80;;;;;;5006779;28;20733;-42
2021/11/10 05:35:12;;;;;;;6.20;5.60;;;24.00;54.80;;;;;;5005750;28;20287;-42
2021/11/10 05:37:45;;;;;;;6.55;6.00;;;24.00;54.80;;;;;;5005345;28;20197;-43
2021/11/10 05:40:15;;;;;;;6.28;5.78;;;24.00;54.70;;;;;;5005928;28;20683;-41
2021/11/10 05:42:46;;;;;;;5.93;5.43;;;24.00;54.70;;;;;;5006727;28;20197;-41
2021/11/10 05:45:17;;;;;;;6.25;5.70;;;24.00;54.70;;;;;;5005636;28;20272;-42
2021/11/10 05:47:47;;;;;;;5.55;5.05;;;24.00;54.70;;;;;;5006252;28;20272;-41
2021/11/10 05:50:18;;;;;;;5.95;5.35;;;24.00;54.70;;;;;;5004657;28;20221;-42
2021/11/10 05:52:50;;;;;;;5.82;5.28;;;24.00;54.70;;;;;;5004815;28;20252;-41
2021/11/10 05:55:23;;;;;;;6.30;5.50;;;24.00;54.80;;;;;;5005260;28;20592;-42
2021/11/10 05:57:54;;;;;;;6.07;5.53;;;23.90;54.70;;;;;;5005793;28;20204;-43
2021/11/10 06:00:25;;;;;;;6.38;5.78;;;23.90;54.70;;;;;;5000778;28;20205;-43
2021/11/10 06:02:56;;;;;;;5.80;5.22;;;23.90;54.70;;;;;;5004648;28;20327;-42
2021/11/10 06:05:27;;;;;;;5.68;5.18;;;23.90;54.80;;;;;;5006066;28;20208;-43
2021/11/10 06:08:01;;;;;;;5.78;5.18;;;23.90;54.80;;;;;;5006688;28;20578;-41
2021/11/10 06:10:31;;;;;;;5.60;5.03;;;23.90;54.80;;;;;;5005669;28;20320;-43
2021/11/10 06:13:02;;;;;;;6.00;5.40;;;23.90;54.90;;;;;;5005708;28;20228;-44
2021/11/10 06:15:32;;;;;;;5.45;4.90;;;23.90;54.90;;;;;;5008323;28;20288;-41
2021/11/10 06:18:03;;;;;;;5.78;5.28;;;23.90;55.00;;;;;;5009884;28;20228;-41
2021/11/10 06:20:34;;;;;;;5.90;5.30;;;23.90;54.90;;;;;;5008921;28;20396;-43
2021/11/10 06:23:07;;;;;;;5.95;5.13;;;23.80;54.90;;;;;;5008980;28;20293;-41
2021/11/10 06:25:37;;;;;;;5.55;4.97;;;23.80;54.90;;;;;;5007865;28;20197;-44
2021/11/10 06:28:08;;;;;;;5.60;5.20;;;23.80;54.90;;;;;;5007668;28;20205;-45
2021/11/10 06:30:38;;;;;;;5.70;5.20;;;23.80;54.90;;;;;;5004024;28;20312;-43
2021/11/10 06:33:09;;;;;;;5.82;5.30;;;23.90;54.90;;;;;;5009167;28;20649;-45
2021/11/10 06:35:39;;;;;;;6.05;5.28;;;23.80;54.80;;;;;;5009475;28;20207;-43
2021/11/10 06:38:12;;;;;;;6.00;5.45;;;23.80;54.80;;;;;;5009168;28;20721;-42
2021/11/10 06:40:42;;;;;;;5.63;5.13;;;23.80;54.90;;;;;;5008559;28;20225;-44
2021/11/10 06:43:13;;;;;;;5.75;5.18;;;23.80;54.80;;;;;;5008156;28;20308;-42
2021/11/10 06:45:43;;;;;;;5.47;5.07;;;23.80;54.80;;;;;;5008984;28;20615;-48
2021/11/10 06:48:14;;;;;;;5.90;5.40;;;23.70;54.80;;;;;;5008014;28;20292;-44
2021/11/10 06:50:44;;;;;;;5.38;4.88;;;23.70;54.80;;;;;;5009025;28;20231;-47
2021/11/10 06:53:17;;;;;;;5.75;5.25;;;23.70;54.80;;;;;;5009447;28;20213;-42
2021/11/10 06:55:47;;;;;;;5.40;4.90;;;23.70;54.90;;;;;;5008993;28;20207;-44
2021/11/10 06:58:18;;;;;;;5.60;5.10;;;23.70;54.90;;;;;;5007590;28;20197;-43
2021/11/10 07:00:49;;;;;;;5.95;5.35;;;23.70;54.90;;;;;;5002727;28;20636;-45
2021/11/10 07:03:19;;;;;;;5.57;5.07;;;23.70;54.90;;;;;;5003583;28;21870;-45
2021/11/10 07:05:49;;;;;;;5.15;4.75;;;23.70;54.90;;;;;;5005132;28;20760;-42
2021/11/10 07:08:22;;;;;;;6.20;4.85;;;23.70;55.00;;;;;;5009468;28;20211;-46
2021/11/10 07:10:52;;;;;;;5.28;4.88;;;23.70;55.00;;;;;;5008717;28;20343;-44
2021/11/10 07:13:23;;;;;;;5.53;5.03;;;23.70;55.00;;;;;;5007398;28;20249;-44
2021/11/10 07:15:54;;;;;;;5.75;5.25;;;23.70;55.00;;;;;;5008102;28;20197;-45
2021/11/10 07:18:24;;;;;;;5.40;4.90;;;23.60;54.90;;;;;;5007382;28;20283;-43
2021/11/10 07:20:55;;;;;;;6.05;5.45;;;23.70;54.90;;;;;;5007912;28;20232;-44
2021/11/10 07:23:27;;;;;;;5.80;5.30;;;23.60;54.80;;;;;;5007703;28;20658;-45
2021/11/10 07:25:57;;;;;;;5.20;4.80;;;23.60;54.90;;;;;;5008412;28;20227;-42
2021/11/10 07:28:28;;;;;;;5.97;5.10;;;23.60;54.80;;;;;;5007801;28;20193;-41
2021/11/10 07:30:58;;;;;;;5.05;4.60;;;23.50;54.80;;;;;;5007014;28;20225;-43
2021/11/10 07:33:29;;;;;;;5.20;4.70;;;23.50;54.80;;;;;;4996401;28;20228;-43
2021/11/10 07:35:59;;;;;;;5.32;4.82;;;23.50;54.80;;;;;;5007983;28;20635;-43
2021/11/10 07:38:32;;;;;;;5.10;4.70;;;23.50;54.90;;;;;;5008120;28;20280;-44
2021/11/10 07:41:02;;;;;;;5.07;4.68;;;23.50;54.90;;;;;;5006792;28;20255;-41
2021/11/10 07:43:33;;;;;;;4.90;4.50;;;23.50;55.00;;;;;;5008297;28;20212;-44
2021/11/10 07:46:10;;;;;;;5.13;4.72;;;23.50;55.00;;;;;;5007217;28;20203;-41
2021/11/10 07:48:42;;;;;;;5.15;4.75;;;23.40;54.90;;;;;;5007360;28;20296;-44
2021/11/10 07:51:12;;;;;;;5.35;4.90;;;23.40;55.00;;;;;;5016838;23;20599;-46
2021/11/10 07:53:45;;;;;;;5.10;4.70;;;23.40;54.90;;;;;;5007223;28;20311;-46
2021/11/10 07:56:15;;;;;;;5.50;4.88;;;23.40;54.90;;;;;;5008584;28;20224;-47
2021/11/10 07:58:46;;;;;;;5.07;4.57;;;23.40;54.90;;;;;;5007287;28;20281;-47
2021/11/10 08:01:16;;;;;;;5.07;4.57;;;23.40;54.90;;;;;;5008631;28;20328;-43
2021/11/10 08:03:48;;;;;;;5.18;4.75;;;23.40;54.90;;;;;;5001311;28;20221;-45
2021/11/10 08:06:19;;;;;;;4.80;4.40;;;23.40;54.90;;;;;;5006697;28;20197;-42
2021/11/10 08:08:51;;;;;;;5.07;4.68;;;23.40;54.90;;;;;;5006568;28;20211;-43
2021/11/10 08:11:21;;;;;;;4.75;4.35;;;23.30;54.90;;;;;;5007244;28;20235;-43
2021/11/10 08:13:52;;;;;;;5.05;4.65;;;23.30;54.90;;;;;;5007054;28;20315;-45
2021/11/10 08:16:22;;;;;;;5.20;4.80;;;23.30;55.00;;;;;;5007709;28;20284;-41
2021/11/10 08:18:53;;;;;;;4.90;4.40;;;23.30;54.90;;;;;;5006201;28;20292;-40
2021/11/10 08:21:23;;;;;;;5.18;4.72;;;23.30;55.00;;;;;;5007149;28;20207;-40
2021/11/10 08:23:55;;;;;;;5.30;4.80;;;23.20;54.90;;;;;;5006777;28;20217;-43
2021/11/10 08:26:26;;;;;;;5.10;4.70;;;23.30;55.00;;;;;;5006483;28;20293;-42
2021/11/10 08:28:56;;;;;;;4.95;4.60;;;23.20;55.00;;;;;;5005753;28;20223;-41
2021/11/10 08:31:27;;;;;;;4.78;4.38;;;23.20;55.00;;;;;;5005388;28;20659;-44
2021/11/10 08:33:57;;;;;;;5.13;4.70;;;23.20;55.00;;;;;;5006442;28;20332;-41
2021/11/10 08:36:28;;;;;;;5.30;4.88;;;23.20;55.00;;;;;;5004182;28;20228;-43
2021/11/10 08:39:00;;;;;;;4.50;4.10;;;23.20;55.00;;;;;;5005229;28;20366;-42
2021/11/10 08:41:31;;;;;;;4.97;4.47;;;23.10;55.00;;;;;;5006169;28;20227;-41
2021/11/10 08:44:02;;;;;;;4.80;4.30;;;23.20;55.00;;;;;;5005861;28;20311;-45
2021/11/10 08:46:33;;;;;;;4.90;4.32;;;23.20;55.00;;;;;;5007440;28;20288;-40
2021/11/10 08:49:03;;;;;;;4.55;4.15;;;23.10;54.90;;;;;;5005994;28;20224;-43
2021/11/10 08:51:33;;;;;;;4.95;4.55;;;23.10;55.00;;;;;;5007180;28;20319;-44
2021/11/10 08:54:06;;;;;;;5.00;4.60;;;23.10;55.00;;;;;;5006157;28;20309;-46
2021/11/10 08:56:37;;;;;;;4.75;4.32;;;23.00;54.90;;;;;;5004488;28;20280;-42
2021/11/10 08:59:08;;;;;;;4.28;3.88;;;23.00;54.90;;;;;;5004998;28;20211;-42
2021/11/10 09:01:39;;;;;;;4.53;4.22;;;23.00;55.50;;;;;;5006579;28;20200;-42
2021/11/10 09:04:09;;;;;;;4.90;4.50;;;23.00;54.90;;;;;;5005571;28;20220;-45
2021/11/10 09:06:40;;;;;;;4.45;4.05;;;23.00;54.90;;;;;;5005811;28;20283;-48
2021/11/10 09:09:12;;;;;;;4.65;4.25;;;23.00;54.90;;;;;;5006108;28;20193;-42
2021/11/10 09:11:43;;;;;;;4.15;3.85;;;23.00;54.90;;;;;;5006075;28;20315;-44
2021/11/10 09:14:13;;;;;;;4.20;3.80;;;22.90;55.00;;;;;;5006570;28;20224;-45
2021/11/10 09:16:43;;;;;;;4.72;4.25;;;22.90;54.90;;;;;;5005980;28;20205;-42
2021/11/10 09:19:14;;;;;;;4.72;4.32;;;22.90;54.90;;;;;;5007226;28;20204;-41
2021/11/10 09:21:45;;;;;;;4.57;4.18;;;22.90;54.90;;;;;;5006472;28;20201;-41
2021/11/10 09:24:17;;;;;;;4.63;4.22;;;22.90;54.90;;;;;;5006231;28;20307;-42
2021/11/10 09:26:49;;;;;;;4.78;4.38;;;22.90;55.00;;;;;;5005398;28;20295;-43
2021/11/10 09:29:20;;;;;;;4.55;4.15;;;22.90;54.90;;;;;;5005574;28;20695;-43
2021/11/10 09:31:50;;;;;;;4.70;4.30;;;22.80;54.90;;;;;;5005341;28;20319;-45
2021/11/10 09:34:21;;;;;;;4.53;4.13;;;22.80;54.90;;;;;;5005272;28;20304;-43
2021/11/10 09:36:51;;;;;;;4.53;4.15;;;22.80;54.80;;;;;;5006973;28;20283;-47
2021/11/10 09:39:26;;;;;;;4.65;4.25;;;22.80;54.90;;;;;;5006030;28;20193;-43
2021/11/10 09:41:57;;;;;;;4.60;4.30;;;22.80;54.90;;;;;;5005960;28;20200;-46
2021/11/10 09:44:28;;;;;;;4.47;4.07;;;22.70;54.90;;;;;;5005068;28;20888;-44
2021/11/10 09:47:00;;;;;;;4.32;3.92;;;22.70;54.80;;;;;;5005772;28;20288;-43
2021/11/10 09:49:31;;;;;;;4.03;3.72;;;22.70;54.90;;;;;;5006009;28;20204;-41
2021/11/10 09:52:03;;;;;;;4.30;3.90;;;22.60;54.80;;;;;;5009018;28;20224;-46
2021/11/10 09:54:35;;;;;;;4.05;3.75;;;22.60;54.90;;;;;;5010649;28;20299;-45
2021/11/10 09:57:06;;;;;;;4.18;3.88;;;22.60;54.90;;;;;;5009926;28;20208;-44
2021/11/10 09:59:38;;;;;;;4.28;3.97;;;22.60;54.90;;;;;;5009363;28;20317;-44
2021/11/10 10:02:11;;;;;;;4.22;3.83;;;22.60;54.90;;;;;;5009423;28;20193;-44
2021/11/10 10:04:43;;;;;;;4.30;3.90;;;22.60;54.90;;;;;;5008628;28;20220;-47
2021/11/10 10:07:15;;;;;;;4.18;3.88;;;22.60;55.50;;;;;;5010108;28;20240;-44
2021/11/10 10:09:47;;;;;;;4.50;4.10;;;22.60;54.90;;;;;;4996150;28;20197;-46
2021/11/10 10:12:19;;;;;;;4.03;3.72;;;22.50;54.90;;;;;;5009539;28;20303;-45
2021/11/10 10:14:49;;;;;;;4.50;4.13;;;22.50;54.90;;;;;;5009528;28;20283;-45
2021/11/10 10:17:36;;;;;;;4.32;3.92;;;22.50;54.90;;;;;;5008899;28;20205;-46
2021/11/10 10:20:09;;;;;;;4.20;3.90;;;22.50;54.90;;;;;;5008481;28;20211;-44
2021/11/10 10:22:41;;;;;;;4.57;4.18;;;22.40;54.90;;;;;;5008789;28;20295;-46
2021/11/10 10:25:13;;;;;;;4.45;4.05;;;22.40;54.90;;;;;;5008362;28;20235;-44
2021/11/10 10:27:55;;;;;;;4.05;3.72;;;22.40;55.00;;;;;;5008786;28;20216;-43
2021/11/10 10:30:32;;;;;;;4.13;3.83;;;22.40;55.00;;;;;;5008858;28;20284;-42
2021/11/10 10:33:04;;;;;;;4.30;3.97;;;22.40;55.00;;;;;;5008621;28;20307;-41
2021/11/10 10:35:44;;;;;;;3.72;3.42;;;22.30;54.90;;;;;;5008873;28;20237;-43
2021/11/10 10:38:17;;;;;;;4.10;3.80;;;22.30;55.00;;;;;;5005806;28;20823;-44
2021/11/10 10:40:52;;;;;;;4.00;3.70;;;22.30;55.00;;;;;;5006252;28;20204;-43
2021/11/10 10:43:23;;;;;;;4.32;4.00;;;22.30;55.00;;;;;;5008856;28;20256;-45
2021/11/10 10:45:55;;;;;;;4.40;4.03;;;22.30;55.00;;;;;;5007864;28;20259;-42
2021/11/10 10:48:27;;;;;;;3.95;3.65;;;22.20;55.00;;;;;;5007939;28;20717;-42
2021/11/10 10:50:59;;;;;;;4.25;3.95;;;22.20;55.00;;;;;;5011987;28;20299;-43
2021/11/10 10:53:38;;;;;;;3.75;3.45;;;22.20;55.00;;;;;;5022783;23;20280;-53
2021/11/10 10:56:23;;;;;;;4.25;3.88;;;22.20;55.00;;;;;;4990786;28;20228;-49
2021/11/10 10:58:55;;;;;;;4.35;3.95;;;22.20;55.00;;;;;;4988748;28;20634;-48
2021/11/10 11:01:30;;;;;;;4.18;3.88;;;22.20;55.00;;;;;;4991112;28;20943;-51
2021/11/10 11:04:03;;;;;;;4.28;3.97;;;22.10;55.00;;;;;;4990388;28;20308;-49
2021/11/10 11:06:40;;;;;;;4.50;4.10;;;22.10;55.00;;;;;;4987766;28;20288;-49
2021/11/10 11:09:21;;;;;;;4.65;4.25;;;22.00;55.00;;;;;;4979867;28;20294;-51
2021/11/10 11:11:58;;;;;;;3.90;3.60;;;22.00;55.00;;;;;;4974468;28;20245;-49
2021/11/10 11:14:48;;;;;;;3.35;3.05;;;22.00;55.00;;;;;;4990482;28;20234;-49
2021/11/10 11:17:29;;;;;;;3.60;3.33;;;22.00;55.00;;;;;;4986453;28;20264;-53
2021/11/10 11:20:01;;;;;;;4.53;4.13;;;22.00;55.00;;;;;;4990120;28;20205;-48
2021/11/10 11:22:32;;;;;;;4.20;3.90;;;22.00;55.10;;;;;;4989219;28;20647;-48
2021/11/10 11:25:12;;;;;;;4.45;4.05;;;22.00;55.10;;;;;;4990848;28;20633;-48
2021/11/10 11:27:55;;;;;;;3.97;3.67;;;21.90;55.10;;;;;;4990700;28;20256;-49
2021/11/10 11:30:26;;;;;;;4.45;4.05;;;21.90;55.10;;;;;;4990659;28;20300;-51
2021/11/10 11:32:58;;;;;;;4.60;4.20;;;21.90;55.10;;;;;;4989039;28;20233;-48
2021/11/10 11:35:31;;;;;;;4.00;3.70;;;21.90;55.10;;;;;;4973106;28;20289;-51
2021/11/10 11:38:07;;;;;;;4.13;3.83;;;21.80;55.10;;;;;;4990345;28;20567;-48
2021/11/10 11:40:39;;;;;;;4.63;4.22;;;21.80;55.00;;;;;;4990605;28;20197;-48
2021/11/10 11:43:14;;;;;;;4.05;3.75;;;21.80;55.10;;;;;;4988875;28;20308;-51
2021/11/10 11:45:46;;;;;;;3.97;3.60;;;21.80;55.10;;;;;;4989044;28;20197;-50
2021/11/10 11:48:17;;;;;;;4.30;3.95;;;21.70;55.10;;;;;;4988220;28;20209;-51
2021/11/10 11:50:48;;;;;;;4.15;3.85;;;21.70;55.10;;;;;;4988818;28;20650;-50
2021/11/10 12:22:04;;;;;;;4.57;4.18;;;21.50;55.10;;;;;;5878516;23;20230;-41
2021/11/10 12:24:52;;;;;;;4.43;4.10;;;21.50;55.10;;;;;;4952519;28;20604;-43
2021/11/10 12:27:37;;;;;;;4.47;4.07;;;21.50;55.10;;;;;;4951338;28;20218;-40
2021/11/10 12:30:16;;;;;;;4.43;4.07;;;21.50;55.20;;;;;;4952080;28;20203;-40
2021/11/10 12:32:52;;;;;;;4.05;3.75;;;21.40;55.20;;;;;;4951831;28;20235;-42
2021/11/10 12:35:41;;;;;;;3.50;3.30;;;21.40;55.20;;;;;;4951887;28;20198;-39
2021/11/10 12:38:23;;;;;;;4.15;3.80;;;21.40;55.30;;;;;;4951929;28;20194;-40
2021/11/10 12:41:00;;;;;;;3.88;3.58;;;21.30;55.20;;;;;;4951227;28;20285;-42
2021/11/10 12:43:39;;;;;;;4.13;3.83;;;21.30;55.20;;;;;;4951909;28;20595;-41
2021/11/10 12:46:13;;;;;;;3.70;3.40;;;21.30;55.20;;;;;;4952035;28;20290;-40
2021/11/10 12:48:45;;;;;;;3.63;3.33;;;21.30;55.20;;;;;;4951743;28;20207;-40
2021/11/10 12:51:22;;;;;;;3.80;3.50;;;21.30;55.20;;;;;;4952083;28;20213;-43
2021/11/10 12:53:55;;;;;;;3.88;3.58;;;21.30;55.20;;;;;;4952173;28;20222;-40
2021/11/10 12:56:47;;;;;;;4.00;3.55;;;21.30;55.30;;;;;;4951557;28;20302;-43
2021/11/10 12:59:24;;;;;;;4.13;3.83;;;21.20;55.20;;;;;;4951567;28;20203;-41
2021/11/10 13:01:56;;;;;;;4.10;3.70;;;21.20;55.20;;;;;;4951953;28;20289;-41
2021/11/10 13:04:27;;;;;;;3.80;3.50;;;21.20;55.20;;;;;;4932755;28;20242;-40
2021/11/10 13:07:00;;;;;;;4.00;3.70;;;21.20;55.20;;;;;;4932015;29;20795;-40
2021/11/10 13:09:36;;;;;;;4.13;3.83;;;21.20;55.20;;;;;;4932698;29;20232;-41
2021/11/10 13:12:08;;;;;;;3.83;3.53;;;21.10;55.20;;;;;;4935060;29;20227;-42
2021/11/10 13:14:44;;;;;;;3.45;3.20;;;21.20;55.30;;;;;;4932300;28;20311;-42
2021/11/10 13:17:16;;;;;;;4.07;3.67;;;21.10;55.30;;;;;;4936653;28;20199;-40
2021/11/10 13:19:50;;;;;;;3.88;3.58;;;21.10;55.30;;;;;;4952019;28;20282;-41
2021/11/10 13:22:23;;;;;;;3.97;3.58;;;21.10;55.30;;;;;;4951702;28;20667;-44
2021/11/10 13:25:01;;;;;;;3.92;3.63;;;21.10;55.30;;;;;;4955554;28;20305;-40
2021/11/10 13:27:33;;;;;;;3.88;3.58;;;21.00;55.30;;;;;;4955320;28;20209;-40
2021/11/10 13:30:07;;;;;;;3.88;3.40;;;21.00;55.30;;;;;;4954848;28;20301;-40
2021/11/10 13:32:42;;;;;;;4.38;3.97;;;21.00;55.30;;;;;;4954862;28;20289;-42
2021/11/10 13:35:13;;;;;;;3.90;3.60;;;21.00;55.30;;;;;;4955404;28;20194;-43
2021/11/10 13:37:46;;;;;;;3.58;3.30;;;21.00;55.30;;;;;;4955741;28;20281;-43
2021/11/10 13:40:22;;;;;;;3.72;3.42;;;21.00;55.40;;;;;;4955351;28;20217;-44